TimeEST,TemperatureF,Dew PointF,Humidity,Sea Level PressureIn,VisibilityMPH,Wind Direction,Wind SpeedMPH,Gust SpeedMPH,PrecipitationIn,Events,Conditions,WindDirDegrees,DateUTC
12:54 AM,28.9,24.1,82,30.39,9.0,NNW,3.5,-,N/A,,Clear,340,2012-11-15 05:54:00
1:54 AM,28.0,23.0,81,30.37,9.0,Calm,Calm,-,N/A,,Clear,0,2012-11-15 06:54:00
2:54 AM,27.0,23.0,85,30.36,8.0,Calm,Calm,-,N/A,,Clear,0,2012-11-15 07:54:00
3:54 AM,26.1,21.9,84,30.35,7.0,Calm,Calm,-,N/A,,Clear,0,2012-11-15 08:54:00
4:54 AM,25.0,21.0,85,30.35,6.0,Calm,Calm,-,N/A,,Clear,0,2012-11-15 09:54:00
5:54 AM,23.0,19.9,88,30.37,5.0,Calm,Calm,-,N/A,,Clear,0,2012-11-15 10:54:00
6:54 AM,23.0,19.9,88,30.39,4.0,Calm,Calm,-,N/A,,Clear,0,2012-11-15 11:54:00
7:54 AM,25.0,21.9,88,30.40,3.0,Calm,Calm,-,N/A,,Clear,0,2012-11-15 12:54:00
8:54 AM,32.0,26.1,79,30.38,6.0,North,4.6,-,N/A,,Haze,10,2012-11-15 13:54:00
9:54 AM,37.0,28.0,70,30.37,8.0,East,4.6,-,N/A,,Clear,80,2012-11-15 14:54:00
10:54 AM,41.0,28.0,60,30.37,10.0,ENE,3.5,-,N/A,,Clear,60,2012-11-15 15:54:00
11:54 AM,45.0,28.9,53,30.36,10.0,Variable,3.5,-,N/A,,Clear,0,2012-11-15 16:54:00
12:54 PM,45.0,28.9,53,30.35,10.0,Calm,Calm,-,N/A,,Clear,0,2012-11-15 17:54:00
1:54 PM,46.9,28.9,50,30.32,10.0,Calm,Calm,-,N/A,,Clear,0,2012-11-15 18:54:00
2:54 PM,48.0,28.9,48,30.32,10.0,WSW,3.5,-,N/A,,Clear,240,2012-11-15 19:54:00
3:54 PM,48.9,28.0,44,30.32,10.0,North,3.5,-,N/A,,Clear,350,2012-11-15 20:54:00
4:54 PM,45.0,27.0,49,30.32,10.0,North,3.5,-,N/A,,Clear,350,2012-11-15 21:54:00
5:54 PM,39.9,30.0,68,30.32,10.0,Calm,Calm,-,N/A,,Clear,0,2012-11-15 22:54:00
6:54 PM,35.1,28.0,76,30.34,10.0,Calm,Calm,-,N/A,,Clear,0,2012-11-15 23:54:00
7:54 PM,34.0,28.0,79,30.34,10.0,Calm,Calm,-,N/A,,Clear,0,2012-11-16 00:54:00
8:54 PM,33.1,28.0,82,30.35,9.0,Calm,Calm,-,N/A,,Clear,0,2012-11-16 01:54:00
9:54 PM,33.1,28.0,82,30.36,10.0,Calm,Calm,-,N/A,,Clear,0,2012-11-16 02:54:00
10:54 PM,30.0,26.1,85,30.36,8.0,Calm,Calm,-,N/A,,Clear,0,2012-11-16 03:54:00
11:54 PM,30.9,27.0,85,30.36,8.0,Calm,Calm,-,N/A,,Clear,0,2012-11-16 04:54:00